RYR5236 LIRP-EBBR
Flight info
| Callsign | RYR5236 |
|---|---|
| Flight time | 1h 32m |
| Altitude | 38000 |
| Route | SPEZI DCT IDONA DCT LUKIM DCT DEVOX DCT TONDA DCT PIMOT DCT AOSTA DCT ORSUD DCT MOLUS DCT GILIR DCT PENDU DCT IXILU DCT GIVOR DCT SORAL DCT IBERA DCT DIK Y37 BATTY |
| Aircraft | B738/M-SDE3FGILRWY/SB1 |
Departure
| Time | 2026-05-08 07:53 |
|---|---|
| Airport | Pisa International Airport (LIRP) |
Arrival
| Time | 2026-05-08 09:26 |
|---|---|
| Airport | Brussels Airport (EBBR) |
| Time | Latitude | Longitude | Altitude | Speed | Heading |
|---|---|---|---|---|---|
| 2026-05-08 07:28 | 43.68819 | 10.38643 | 14 ft | 0 kts | 21° |
| 2026-05-08 07:44 | 43.68812 | 10.38638 | 14 ft | 4 kts | 21° |
| 2026-05-08 07:45 | 43.68789 | 10.38627 | 14 ft | 4 kts | 19° |
| 2026-05-08 07:45 | 43.68764 | 10.38620 | 14 ft | 4 kts | 350° |
| 2026-05-08 07:45 | 43.68743 | 10.38635 | 14 ft | 4 kts | 302° |
| 2026-05-08 07:45 | 43.68733 | 10.38669 | 14 ft | 4 kts | 288° |
| 2026-05-08 07:46 | 43.68721 | 10.38701 | 14 ft | 4 kts | 312° |
| 2026-05-08 07:46 | 43.68704 | 10.38729 | 14 ft | 4 kts | 308° |
| 2026-05-08 07:46 | 43.68688 | 10.38755 | 14 ft | 1 kts | 315° |
| 2026-05-08 07:46 | 43.68684 | 10.38760 | 14 ft | 0 kts | 315° |
| 2026-05-08 07:47 | 43.68685 | 10.38759 | 14 ft | 0 kts | 315° |
| 2026-05-08 07:48 | 43.68685 | 10.38758 | 14 ft | 2 kts | 315° |
| 2026-05-08 07:49 | 43.68728 | 10.38734 | 14 ft | 11 kts | 11° |
| 2026-05-08 07:49 | 43.68808 | 10.38771 | 14 ft | 12 kts | 22° |
| 2026-05-08 07:49 | 43.68900 | 10.38830 | 14 ft | 17 kts | 29° |
| 2026-05-08 07:49 | 43.68928 | 10.38968 | 14 ft | 17 kts | 113° |
| 2026-05-08 07:50 | 43.68877 | 10.39130 | 14 ft | 20 kts | 113° |
| 2026-05-08 07:50 | 43.68821 | 10.39312 | 14 ft | 21 kts | 111° |
| 2026-05-08 07:50 | 43.68748 | 10.39452 | 14 ft | 15 kts | 182° |
| 2026-05-08 07:50 | 43.68641 | 10.39370 | 14 ft | 22 kts | 218° |
| 2026-05-08 07:51 | 43.68493 | 10.39214 | 14 ft | 30 kts | 217° |
| 2026-05-08 07:51 | 43.68321 | 10.39038 | 14 ft | 30 kts | 216° |
| 2026-05-08 07:51 | 43.68161 | 10.38877 | 14 ft | 27 kts | 218° |
| 2026-05-08 07:51 | 43.68018 | 10.38726 | 14 ft | 25 kts | 217° |
| 2026-05-08 07:52 | 43.67886 | 10.38592 | 14 ft | 21 kts | 216° |
| 2026-05-08 07:52 | 43.67777 | 10.38483 | 14 ft | 20 kts | 216° |
| 2026-05-08 07:52 | 43.67642 | 10.38379 | 14 ft | 23 kts | 175° |
| 2026-05-08 07:52 | 43.67534 | 10.38536 | 14 ft | 21 kts | 75° |
| 2026-05-08 07:53 | 43.67779 | 10.38808 | 14 ft | 80 kts | 38° |
| 2026-05-08 07:53 | 43.68410 | 10.39464 | 14 ft | 145 kts | 37° |
| 2026-05-08 07:53 | 43.69326 | 10.40426 | 312 ft | 175 kts | 38° |
| 2026-05-08 07:53 | 43.70294 | 10.41404 | 1370 ft | 163 kts | 36° |
| 2026-05-08 07:54 | 43.71211 | 10.42280 | 2271 ft | 160 kts | 35° |
| 2026-05-08 07:54 | 43.72183 | 10.43096 | 2972 ft | 170 kts | 25° |
| 2026-05-08 07:54 | 43.73417 | 10.43488 | 3434 ft | 198 kts | 4° |
| 2026-05-08 07:54 | 43.74857 | 10.43273 | 4035 ft | 211 kts | 346° |
| 2026-05-08 07:55 | 43.76190 | 10.42454 | 4958 ft | 214 kts | 329° |
| 2026-05-08 07:55 | 43.77330 | 10.41070 | 5638 ft | 226 kts | 310° |
| 2026-05-08 07:55 | 43.77904 | 10.39828 | 6229 ft | 229 kts | 298° |
| 2026-05-08 07:55 | 43.78417 | 10.37723 | 7063 ft | 234 kts | 283° |
| 2026-05-08 07:56 | 43.78721 | 10.35496 | 7915 ft | 238 kts | 281° |
| 2026-05-08 07:56 | 43.78929 | 10.33195 | 8701 ft | 245 kts | 275° |
| 2026-05-08 07:56 | 43.79128 | 10.30776 | 9234 ft | 264 kts | 278° |
| 2026-05-08 07:56 | 43.79416 | 10.28164 | 9723 ft | 283 kts | 279° |
| 2026-05-08 07:57 | 43.79769 | 10.25420 | 10385 ft | 295 kts | 279° |
| 2026-05-08 07:57 | 43.80119 | 10.22567 | 11098 ft | 304 kts | 276° |
| 2026-05-08 07:57 | 43.80251 | 10.19631 | 11950 ft | 307 kts | 269° |
| 2026-05-08 07:57 | 43.80169 | 10.16669 | 12828 ft | 309 kts | 265° |
| 2026-05-08 07:58 | 43.80017 | 10.13694 | 13684 ft | 312 kts | 265° |
| 2026-05-08 07:58 | 43.79876 | 10.10687 | 14533 ft | 314 kts | 265° |
| 2026-05-08 07:58 | 43.79739 | 10.07659 | 15351 ft | 317 kts | 265° |
| 2026-05-08 07:58 | 43.79606 | 10.04611 | 16150 ft | 319 kts | 265° |
| 2026-05-08 07:59 | 43.79480 | 10.01520 | 16936 ft | 322 kts | 265° |
| 2026-05-08 07:59 | 43.79350 | 9.98419 | 17710 ft | 324 kts | 265° |
| 2026-05-08 07:59 | 43.79215 | 9.95292 | 18449 ft | 327 kts | 265° |
| 2026-05-08 07:59 | 43.79078 | 9.92133 | 19166 ft | 330 kts | 265° |
| 2026-05-08 08:00 | 43.78938 | 9.88941 | 19879 ft | 333 kts | 265° |
| 2026-05-08 08:00 | 43.78797 | 9.85738 | 20572 ft | 335 kts | 265° |
| 2026-05-08 08:00 | 43.78659 | 9.82497 | 21245 ft | 338 kts | 265° |
| 2026-05-08 08:00 | 43.78517 | 9.79234 | 21903 ft | 341 kts | 265° |
| 2026-05-08 08:01 | 43.78369 | 9.75952 | 22556 ft | 343 kts | 265° |
| 2026-05-08 08:01 | 43.78214 | 9.72598 | 23202 ft | 345 kts | 265° |
| 2026-05-08 08:01 | 43.78061 | 9.69318 | 23805 ft | 348 kts | 265° |
| 2026-05-08 08:01 | 43.77902 | 9.65922 | 24410 ft | 350 kts | 265° |
| 2026-05-08 08:02 | 43.78093 | 9.62557 | 24990 ft | 356 kts | 282° |
| 2026-05-08 08:02 | 43.79078 | 9.59433 | 25535 ft | 365 kts | 300° |
| 2026-05-08 08:02 | 43.80831 | 9.56769 | 26038 ft | 377 kts | 317° |
| 2026-05-08 08:02 | 43.83078 | 9.54817 | 26530 ft | 386 kts | 328° |
| 2026-05-08 08:03 | 43.85477 | 9.53125 | 27009 ft | 390 kts | 329° |
| 2026-05-08 08:03 | 43.87910 | 9.51394 | 27476 ft | 393 kts | 327° |
| 2026-05-08 08:03 | 43.90304 | 9.49560 | 27934 ft | 395 kts | 325° |
| 2026-05-08 08:03 | 43.92706 | 9.47669 | 28389 ft | 398 kts | 325° |
| 2026-05-08 08:04 | 43.95120 | 9.45768 | 28811 ft | 401 kts | 325° |
| 2026-05-08 08:04 | 43.97559 | 9.43846 | 29242 ft | 404 kts | 324° |
| 2026-05-08 08:04 | 44.00022 | 9.41913 | 29637 ft | 407 kts | 324° |
| 2026-05-08 08:04 | 44.02505 | 9.39967 | 30171 ft | 406 kts | 324° |
| 2026-05-08 08:05 | 44.05010 | 9.37996 | 30567 ft | 409 kts | 324° |
| 2026-05-08 08:05 | 44.07479 | 9.36051 | 30906 ft | 413 kts | 323° |
| 2026-05-08 08:05 | 44.10001 | 9.34061 | 31312 ft | 414 kts | 323° |
| 2026-05-08 08:05 | 44.12509 | 9.32081 | 31690 ft | 416 kts | 323° |
| 2026-05-08 08:06 | 44.14953 | 9.30033 | 32054 ft | 415 kts | 320° |
| 2026-05-08 08:06 | 44.17367 | 9.27733 | 32423 ft | 414 kts | 317° |
| 2026-05-08 08:06 | 44.19696 | 9.25375 | 32755 ft | 416 kts | 316° |
| 2026-05-08 08:06 | 44.21997 | 9.23016 | 33077 ft | 418 kts | 317° |
| 2026-05-08 08:07 | 44.24399 | 9.20563 | 33404 ft | 420 kts | 316° |
| 2026-05-08 08:07 | 44.26780 | 9.18143 | 33720 ft | 422 kts | 317° |
| 2026-05-08 08:07 | 44.29159 | 9.15729 | 34022 ft | 424 kts | 316° |
| 2026-05-08 08:07 | 44.31543 | 9.13313 | 34301 ft | 426 kts | 317° |
| 2026-05-08 08:08 | 44.33954 | 9.10870 | 34592 ft | 428 kts | 317° |
| 2026-05-08 08:08 | 44.36355 | 9.08439 | 34873 ft | 429 kts | 317° |
| 2026-05-08 08:08 | 44.38779 | 9.05984 | 35149 ft | 431 kts | 317° |
| 2026-05-08 08:08 | 44.41256 | 9.03474 | 35393 ft | 433 kts | 317° |
| 2026-05-08 08:09 | 44.43665 | 9.01056 | 35643 ft | 435 kts | 318° |
| 2026-05-08 08:09 | 44.46143 | 8.98580 | 35875 ft | 437 kts | 318° |
| 2026-05-08 08:09 | 44.48611 | 8.96098 | 36108 ft | 438 kts | 318° |
| 2026-05-08 08:09 | 44.51087 | 8.93594 | 36347 ft | 439 kts | 318° |
| 2026-05-08 08:10 | 44.53595 | 8.91049 | 36731 ft | 437 kts | 318° |
| 2026-05-08 08:10 | 44.56050 | 8.88551 | 37073 ft | 436 kts | 318° |
| 2026-05-08 08:10 | 44.58537 | 8.86016 | 37406 ft | 435 kts | 318° |
| 2026-05-08 08:10 | 44.61006 | 8.83495 | 37734 ft | 434 kts | 318° |
| 2026-05-08 08:11 | 44.63485 | 8.80959 | 37763 ft | 439 kts | 319° |
| 2026-05-08 08:11 | 44.65963 | 8.78425 | 37875 ft | 440 kts | 319° |
| 2026-05-08 08:11 | 44.68433 | 8.75898 | 37984 ft | 439 kts | 319° |
| 2026-05-08 08:12 | 44.73157 | 8.70489 | 38007 ft | 436 kts | 313° |
| 2026-05-08 08:12 | 44.77651 | 8.64795 | 38015 ft | 435 kts | 313° |
| 2026-05-08 08:13 | 44.82164 | 8.59105 | 38021 ft | 435 kts | 313° |
| 2026-05-08 08:13 | 44.86683 | 8.53427 | 38027 ft | 435 kts | 313° |
| 2026-05-08 08:14 | 44.91228 | 8.47789 | 38033 ft | 435 kts | 313° |
| 2026-05-08 08:14 | 44.95750 | 8.42129 | 38046 ft | 435 kts | 313° |
| 2026-05-08 08:15 | 45.00267 | 8.36443 | 38053 ft | 434 kts | 313° |
| 2026-05-08 08:15 | 45.04784 | 8.30738 | 38061 ft | 435 kts | 313° |
| 2026-05-08 08:16 | 45.09288 | 8.25047 | 38070 ft | 434 kts | 313° |
| 2026-05-08 08:16 | 45.13772 | 8.19327 | 38074 ft | 434 kts | 313° |
| 2026-05-08 08:17 | 45.18249 | 8.13580 | 38076 ft | 434 kts | 313° |
| 2026-05-08 08:17 | 45.22713 | 8.07832 | 38079 ft | 434 kts | 313° |
| 2026-05-08 08:18 | 45.27187 | 8.02072 | 38082 ft | 434 kts | 314° |
| 2026-05-08 08:18 | 45.31667 | 7.96346 | 38097 ft | 435 kts | 313° |
| 2026-05-08 08:19 | 45.36149 | 7.90558 | 38104 ft | 435 kts | 313° |
| 2026-05-08 08:19 | 45.40621 | 7.84751 | 38105 ft | 434 kts | 313° |
| 2026-05-08 08:20 | 45.45078 | 7.78945 | 38106 ft | 434 kts | 313° |
| 2026-05-08 08:20 | 45.49531 | 7.73139 | 38107 ft | 434 kts | 313° |
| 2026-05-08 08:21 | 45.53248 | 7.68309 | 38103 ft | 435 kts | 314° |
| 2026-05-08 08:21 | 45.57779 | 7.62601 | 38104 ft | 435 kts | 314° |
| 2026-05-08 08:22 | 45.62303 | 7.56859 | 38109 ft | 435 kts | 314° |
| 2026-05-08 08:22 | 45.66809 | 7.51089 | 38110 ft | 435 kts | 313° |
| 2026-05-08 08:23 | 45.71298 | 7.45314 | 38111 ft | 435 kts | 313° |
| 2026-05-08 08:23 | 45.75801 | 7.39508 | 38112 ft | 436 kts | 313° |
| 2026-05-08 08:24 | 45.80370 | 7.33797 | 38111 ft | 438 kts | 318° |
| 2026-05-08 08:24 | 45.85373 | 7.28742 | 38109 ft | 440 kts | 320° |
| 2026-05-08 08:25 | 45.90378 | 7.23704 | 38105 ft | 440 kts | 320° |
| 2026-05-08 08:25 | 45.95385 | 7.18624 | 38098 ft | 440 kts | 320° |
| 2026-05-08 08:26 | 46.00380 | 7.13508 | 38093 ft | 441 kts | 320° |
| 2026-05-08 08:26 | 46.05364 | 7.08380 | 38089 ft | 439 kts | 320° |
| 2026-05-08 08:27 | 46.10328 | 7.03261 | 38086 ft | 439 kts | 320° |
| 2026-05-08 08:27 | 46.15302 | 6.98118 | 38085 ft | 440 kts | 320° |
| 2026-05-08 08:28 | 46.20298 | 6.92979 | 38084 ft | 441 kts | 321° |
| 2026-05-08 08:28 | 46.25293 | 6.87840 | 38080 ft | 441 kts | 320° |
| 2026-05-08 08:29 | 46.30276 | 6.82665 | 38080 ft | 441 kts | 320° |
| 2026-05-08 08:29 | 46.35252 | 6.77474 | 38082 ft | 441 kts | 320° |
| 2026-05-08 08:30 | 46.40239 | 6.72260 | 38082 ft | 442 kts | 320° |
| 2026-05-08 08:30 | 46.48122 | 6.65256 | 38083 ft | 447 kts | 330° |
| 2026-05-08 08:31 | 46.53719 | 6.61325 | 38083 ft | 447 kts | 330° |
| 2026-05-08 08:31 | 46.59311 | 6.57382 | 38083 ft | 447 kts | 330° |
| 2026-05-08 08:32 | 46.64913 | 6.53418 | 38083 ft | 447 kts | 330° |
| 2026-05-08 08:32 | 46.70499 | 6.49453 | 38082 ft | 447 kts | 330° |
| 2026-05-08 08:33 | 46.76089 | 6.45484 | 38076 ft | 447 kts | 330° |
| 2026-05-08 08:33 | 46.81696 | 6.41537 | 38067 ft | 447 kts | 330° |
| 2026-05-08 08:34 | 46.87338 | 6.37524 | 38069 ft | 446 kts | 330° |
| 2026-05-08 08:34 | 46.92903 | 6.33540 | 38069 ft | 446 kts | 330° |
| 2026-05-08 08:35 | 46.98441 | 6.29561 | 38064 ft | 446 kts | 330° |
| 2026-05-08 08:35 | 47.04008 | 6.25555 | 38063 ft | 446 kts | 330° |
| 2026-05-08 08:36 | 47.09583 | 6.21565 | 38059 ft | 446 kts | 330° |
| 2026-05-08 08:36 | 47.15161 | 6.17572 | 38058 ft | 445 kts | 330° |
| 2026-05-08 08:37 | 47.20723 | 6.13566 | 38061 ft | 445 kts | 330° |
| 2026-05-08 08:37 | 47.26279 | 6.09548 | 38062 ft | 445 kts | 330° |
| 2026-05-08 08:38 | 47.31882 | 6.05612 | 38060 ft | 448 kts | 335° |
| 2026-05-08 08:38 | 47.37991 | 6.03571 | 38062 ft | 456 kts | 352° |
| 2026-05-08 08:39 | 47.44359 | 6.03451 | 38061 ft | 459 kts | 357° |
| 2026-05-08 08:39 | 47.50732 | 6.03607 | 38061 ft | 458 kts | 357° |
| 2026-05-08 08:40 | 47.57108 | 6.03748 | 38060 ft | 458 kts | 357° |
| 2026-05-08 08:40 | 47.63481 | 6.03882 | 38059 ft | 458 kts | 357° |
| 2026-05-08 08:41 | 47.69853 | 6.04014 | 38058 ft | 458 kts | 357° |
| 2026-05-08 08:41 | 47.76283 | 6.04979 | 38057 ft | 463 kts | 8° |
| 2026-05-08 08:42 | 47.82539 | 6.07238 | 38057 ft | 464 kts | 11° |
| 2026-05-08 08:42 | 47.88789 | 6.09625 | 38059 ft | 464 kts | 11° |
| 2026-05-08 08:43 | 47.95151 | 6.12041 | 38061 ft | 464 kts | 11° |
| 2026-05-08 08:43 | 48.01457 | 6.14435 | 38065 ft | 464 kts | 11° |
| 2026-05-08 08:44 | 48.07711 | 6.16809 | 38070 ft | 464 kts | 11° |
| 2026-05-08 08:44 | 48.14016 | 6.19189 | 38075 ft | 464 kts | 11° |
| 2026-05-08 08:45 | 48.20315 | 6.21579 | 38078 ft | 464 kts | 11° |
| 2026-05-08 08:45 | 48.26575 | 6.23964 | 38081 ft | 464 kts | 11° |
| 2026-05-08 08:46 | 48.31826 | 6.25970 | 38081 ft | 464 kts | 11° |
| 2026-05-08 08:46 | 48.38079 | 6.28354 | 38082 ft | 464 kts | 11° |
| 2026-05-08 08:47 | 48.44342 | 6.30755 | 38081 ft | 463 kts | 11° |
| 2026-05-08 08:47 | 48.50542 | 6.33147 | 38082 ft | 463 kts | 11° |
| 2026-05-08 08:48 | 48.56835 | 6.35582 | 38082 ft | 463 kts | 11° |
| 2026-05-08 08:48 | 48.63105 | 6.38011 | 38083 ft | 463 kts | 11° |
| 2026-05-08 08:49 | 48.69482 | 6.39469 | 38087 ft | 459 kts | 1° |
| 2026-05-08 08:49 | 48.75868 | 6.40129 | 38090 ft | 459 kts | 0° |
| 2026-05-08 08:50 | 48.82230 | 6.40777 | 38096 ft | 458 kts | 0° |
| 2026-05-08 08:50 | 48.88632 | 6.41434 | 38103 ft | 459 kts | 0° |
| 2026-05-08 08:51 | 48.95053 | 6.42098 | 38108 ft | 458 kts | 0° |
| 2026-05-08 08:51 | 49.01380 | 6.42755 | 38112 ft | 458 kts | 0° |
| 2026-05-08 08:52 | 49.07798 | 6.43360 | 38110 ft | 457 kts | 358° |
| 2026-05-08 08:52 | 49.14093 | 6.42479 | 38112 ft | 451 kts | 345° |
| 2026-05-08 08:53 | 49.20260 | 6.40132 | 38112 ft | 450 kts | 342° |
| 2026-05-08 08:53 | 49.26362 | 6.37650 | 38112 ft | 450 kts | 341° |
| 2026-05-08 08:54 | 49.32324 | 6.35192 | 38112 ft | 451 kts | 341° |
| 2026-05-08 08:54 | 49.38359 | 6.32688 | 38112 ft | 450 kts | 341° |
| 2026-05-08 08:55 | 49.44445 | 6.30153 | 38111 ft | 450 kts | 341° |
| 2026-05-08 08:55 | 49.50499 | 6.27627 | 38111 ft | 450 kts | 341° |
| 2026-05-08 08:56 | 49.56520 | 6.25172 | 38111 ft | 443 kts | 342° |
| 2026-05-08 08:56 | 49.62436 | 6.22762 | 38111 ft | 440 kts | 342° |
| 2026-05-08 08:57 | 49.65410 | 6.21543 | 37830 ft | 440 kts | 342° |
| 2026-05-08 08:57 | 49.68346 | 6.20337 | 37355 ft | 436 kts | 342° |
| 2026-05-08 08:57 | 49.71286 | 6.19126 | 36746 ft | 437 kts | 342° |
| 2026-05-08 08:57 | 49.74223 | 6.17914 | 36248 ft | 434 kts | 342° |
| 2026-05-08 08:58 | 49.77132 | 6.16712 | 35794 ft | 431 kts | 341° |
| 2026-05-08 08:58 | 49.80058 | 6.15502 | 35336 ft | 427 kts | 341° |
| 2026-05-08 08:58 | 49.82912 | 6.14322 | 34894 ft | 424 kts | 341° |
| 2026-05-08 08:58 | 49.85750 | 6.13147 | 34456 ft | 420 kts | 342° |
| 2026-05-08 08:59 | 49.88596 | 6.12114 | 34022 ft | 418 kts | 343° |
| 2026-05-08 08:59 | 49.91382 | 6.11137 | 33601 ft | 414 kts | 343° |
| 2026-05-08 08:59 | 49.94215 | 6.10142 | 33173 ft | 411 kts | 344° |
| 2026-05-08 08:59 | 49.96989 | 6.09165 | 32757 ft | 408 kts | 344° |
| 2026-05-08 09:00 | 49.98814 | 6.08522 | 32485 ft | 406 kts | 344° |
| 2026-05-08 09:00 | 50.01566 | 6.07550 | 32077 ft | 403 kts | 344° |
| 2026-05-08 09:00 | 50.04289 | 6.06586 | 31676 ft | 400 kts | 344° |
| 2026-05-08 09:00 | 50.06995 | 6.05629 | 31278 ft | 397 kts | 344° |
| 2026-05-08 09:01 | 50.09677 | 6.04677 | 30886 ft | 395 kts | 344° |
| 2026-05-08 09:01 | 50.12340 | 6.03731 | 30500 ft | 392 kts | 344° |
| 2026-05-08 09:01 | 50.14997 | 6.02785 | 30116 ft | 390 kts | 344° |
| 2026-05-08 09:01 | 50.17606 | 6.01857 | 29744 ft | 387 kts | 344° |
| 2026-05-08 09:02 | 50.20246 | 6.00920 | 29356 ft | 385 kts | 344° |
| 2026-05-08 09:02 | 50.22850 | 6.00000 | 28972 ft | 383 kts | 344° |
| 2026-05-08 09:02 | 50.25454 | 5.99077 | 28588 ft | 381 kts | 344° |
| 2026-05-08 09:02 | 50.28033 | 5.98161 | 28207 ft | 380 kts | 344° |
| 2026-05-08 09:03 | 50.30611 | 5.97242 | 27824 ft | 378 kts | 344° |
| 2026-05-08 09:03 | 50.33168 | 5.96331 | 27444 ft | 377 kts | 345° |
| 2026-05-08 09:03 | 50.35721 | 5.95426 | 27064 ft | 375 kts | 344° |
| 2026-05-08 09:03 | 50.38266 | 5.94519 | 26685 ft | 374 kts | 345° |
| 2026-05-08 09:04 | 50.40793 | 5.93614 | 26307 ft | 373 kts | 344° |
| 2026-05-08 09:04 | 50.43318 | 5.92708 | 25929 ft | 371 kts | 344° |
| 2026-05-08 09:04 | 50.45836 | 5.91802 | 25553 ft | 370 kts | 345° |
| 2026-05-08 09:04 | 50.48338 | 5.90900 | 25176 ft | 369 kts | 345° |
| 2026-05-08 09:05 | 50.50846 | 5.89994 | 24799 ft | 368 kts | 345° |
| 2026-05-08 09:05 | 50.53335 | 5.89094 | 24424 ft | 367 kts | 345° |
| 2026-05-08 09:05 | 50.55816 | 5.88195 | 24049 ft | 366 kts | 345° |
| 2026-05-08 09:05 | 50.58290 | 5.87299 | 23673 ft | 364 kts | 345° |
| 2026-05-08 09:06 | 50.60715 | 5.86418 | 23304 ft | 363 kts | 343° |
| 2026-05-08 09:06 | 50.63022 | 5.84701 | 22916 ft | 355 kts | 320° |
| 2026-05-08 09:06 | 50.64746 | 5.81980 | 22623 ft | 348 kts | 307° |
| 2026-05-08 09:06 | 50.66151 | 5.78873 | 22087 ft | 349 kts | 301° |
| 2026-05-08 09:07 | 50.67478 | 5.75678 | 21696 ft | 347 kts | 300° |
| 2026-05-08 09:07 | 50.68684 | 5.72439 | 21327 ft | 343 kts | 297° |
| 2026-05-08 09:07 | 50.69817 | 5.69138 | 20964 ft | 340 kts | 296° |
| 2026-05-08 09:07 | 50.70916 | 5.65839 | 20605 ft | 338 kts | 296° |
| 2026-05-08 09:08 | 50.71994 | 5.62558 | 20250 ft | 335 kts | 295° |
| 2026-05-08 09:08 | 50.73058 | 5.59295 | 19895 ft | 333 kts | 296° |
| 2026-05-08 09:08 | 50.74153 | 5.56012 | 19538 ft | 330 kts | 296° |
| 2026-05-08 09:08 | 50.75207 | 5.52807 | 19190 ft | 328 kts | 295° |
| 2026-05-08 09:09 | 50.76245 | 5.49610 | 18844 ft | 326 kts | 295° |
| 2026-05-08 09:09 | 50.77267 | 5.46435 | 18501 ft | 323 kts | 295° |
| 2026-05-08 09:09 | 50.78278 | 5.43271 | 18160 ft | 321 kts | 295° |
| 2026-05-08 09:09 | 50.79288 | 5.40092 | 17818 ft | 319 kts | 295° |
| 2026-05-08 09:10 | 50.80267 | 5.37002 | 17487 ft | 317 kts | 295° |
| 2026-05-08 09:10 | 50.81257 | 5.33866 | 17323 ft | 310 kts | 295° |
| 2026-05-08 09:10 | 50.82197 | 5.30882 | 17320 ft | 305 kts | 295° |
| 2026-05-08 09:10 | 50.83143 | 5.27876 | 17319 ft | 307 kts | 295° |
| 2026-05-08 09:11 | 50.84099 | 5.24831 | 17321 ft | 311 kts | 295° |
| 2026-05-08 09:11 | 50.85063 | 5.21757 | 17316 ft | 314 kts | 295° |
| 2026-05-08 09:11 | 50.86031 | 5.18677 | 17140 ft | 311 kts | 295° |
| 2026-05-08 09:11 | 50.86952 | 5.15574 | 16856 ft | 309 kts | 288° |
| 2026-05-08 09:12 | 50.87463 | 5.12298 | 16525 ft | 306 kts | 278° |
| 2026-05-08 09:12 | 50.87738 | 5.08956 | 16186 ft | 305 kts | 275° |
| 2026-05-08 09:12 | 50.87933 | 5.05670 | 15837 ft | 305 kts | 274° |
| 2026-05-08 09:12 | 50.88149 | 5.02279 | 15515 ft | 303 kts | 274° |
| 2026-05-08 09:13 | 50.88328 | 4.98967 | 15196 ft | 301 kts | 273° |
| 2026-05-08 09:13 | 50.88488 | 4.95662 | 14804 ft | 303 kts | 273° |
| 2026-05-08 09:13 | 50.88643 | 4.92313 | 14330 ft | 307 kts | 273° |
| 2026-05-08 09:13 | 50.88794 | 4.88934 | 13842 ft | 308 kts | 273° |
| 2026-05-08 09:14 | 50.88941 | 4.85555 | 13341 ft | 306 kts | 273° |
| 2026-05-08 09:14 | 50.89082 | 4.82216 | 12841 ft | 303 kts | 273° |
| 2026-05-08 09:14 | 50.89215 | 4.79029 | 12360 ft | 301 kts | 273° |
| 2026-05-08 09:14 | 50.89351 | 4.75738 | 11860 ft | 299 kts | 272° |
| 2026-05-08 09:15 | 50.89485 | 4.72454 | 11360 ft | 298 kts | 272° |
| 2026-05-08 09:15 | 50.89615 | 4.69228 | 10869 ft | 297 kts | 272° |
| 2026-05-08 09:15 | 50.89748 | 4.65926 | 10357 ft | 297 kts | 272° |
| 2026-05-08 09:15 | 50.89877 | 4.62707 | 10093 ft | 287 kts | 272° |
| 2026-05-08 09:16 | 50.90000 | 4.59650 | 10084 ft | 271 kts | 272° |
| 2026-05-08 09:16 | 50.90119 | 4.56695 | 10024 ft | 260 kts | 272° |
| 2026-05-08 09:16 | 50.90236 | 4.53898 | 9736 ft | 254 kts | 274° |
| 2026-05-08 09:16 | 50.90438 | 4.51167 | 9456 ft | 241 kts | 276° |
| 2026-05-08 09:17 | 50.90682 | 4.48573 | 9122 ft | 235 kts | 277° |
| 2026-05-08 09:17 | 50.90922 | 4.46037 | 8771 ft | 231 kts | 277° |
| 2026-05-08 09:17 | 50.91155 | 4.43533 | 8421 ft | 229 kts | 277° |
| 2026-05-08 09:17 | 50.91392 | 4.41045 | 8048 ft | 228 kts | 277° |
| 2026-05-08 09:18 | 50.91630 | 4.38541 | 7669 ft | 227 kts | 277° |
| 2026-05-08 09:18 | 50.91868 | 4.36036 | 7272 ft | 225 kts | 277° |
| 2026-05-08 09:18 | 50.92102 | 4.33562 | 6868 ft | 224 kts | 277° |
| 2026-05-08 09:18 | 50.92333 | 4.31127 | 6466 ft | 222 kts | 277° |
| 2026-05-08 09:19 | 50.92561 | 4.28715 | 6065 ft | 221 kts | 277° |
| 2026-05-08 09:19 | 50.92787 | 4.26312 | 5677 ft | 220 kts | 277° |
| 2026-05-08 09:19 | 50.93010 | 4.23920 | 5302 ft | 219 kts | 277° |
| 2026-05-08 09:19 | 50.93229 | 4.21536 | 4929 ft | 219 kts | 277° |
| 2026-05-08 09:20 | 50.93266 | 4.19146 | 4533 ft | 217 kts | 256° |
| 2026-05-08 09:20 | 50.92649 | 4.17014 | 4183 ft | 211 kts | 234° |
| 2026-05-08 09:20 | 50.91534 | 4.15617 | 3791 ft | 204 kts | 199° |
| 2026-05-08 09:20 | 50.90159 | 4.15673 | 3401 ft | 194 kts | 159° |
| 2026-05-08 09:21 | 50.89043 | 4.16765 | 3085 ft | 185 kts | 139° |
| 2026-05-08 09:21 | 50.88135 | 4.18142 | 3002 ft | 178 kts | 136° |
| 2026-05-08 09:22 | 50.84276 | 4.26986 | 2993 ft | 172 kts | 73° |
| 2026-05-08 09:23 | 50.84756 | 4.28719 | 2979 ft | 174 kts | 65° |
| 2026-05-08 09:23 | 50.85323 | 4.30413 | 2792 ft | 174 kts | 63° |
| 2026-05-08 09:23 | 50.85883 | 4.32107 | 2581 ft | 172 kts | 63° |
| 2026-05-08 09:23 | 50.86442 | 4.33746 | 2336 ft | 164 kts | 62° |
| 2026-05-08 09:24 | 50.86953 | 4.35301 | 2064 ft | 156 kts | 64° |
| 2026-05-08 09:24 | 50.87423 | 4.36827 | 1761 ft | 153 kts | 65° |
| 2026-05-08 09:24 | 50.87869 | 4.38363 | 1424 ft | 154 kts | 66° |
| 2026-05-08 09:24 | 50.88285 | 4.39907 | 1148 ft | 152 kts | 68° |
| 2026-05-08 09:25 | 50.88688 | 4.41418 | 862 ft | 146 kts | 65° |
| 2026-05-08 09:25 | 50.89104 | 4.42857 | 561 ft | 142 kts | 65° |
| 2026-05-08 09:25 | 50.89517 | 4.44282 | 388 ft | 141 kts | 65° |
| 2026-05-08 09:25 | 50.89795 | 4.45227 | 281 ft | 140 kts | 64° |
| 2026-05-08 09:26 | 50.90197 | 4.46605 | 196 ft | 134 kts | 65° |
| 2026-05-08 09:26 | 50.90473 | 4.47562 | 192 ft | 54 kts | 66° |
| 2026-05-08 09:26 | 50.90622 | 4.48099 | 192 ft | 43 kts | 71° |
| 2026-05-08 09:26 | 50.90580 | 4.48214 | 192 ft | 13 kts | 211° |
| 2026-05-08 09:27 | 50.90490 | 4.48121 | 192 ft | 16 kts | 213° |
| 2026-05-08 09:27 | 50.90407 | 4.48047 | 192 ft | 11 kts | 186° |
| 2026-05-08 09:27 | 50.90349 | 4.48103 | 192 ft | 12 kts | 151° |
| 2026-05-08 09:27 | 50.90293 | 4.48140 | 192 ft | 0 kts | 155° |